Date,TemperatureHighF,TemperatureAvgF,TemperatureLowF,DewpointHighF,DewpointAvgF,DewpointLowF,HumidityHigh,HumidityAvg,HumidityLow,PressureMaxIn,PressureMinIn,WindSpeedMaxMPH,WindSpeedAvgMPH,GustSpeedMaxMPH,PrecipitationSumIn
2013-1-1,33,19,-2,27,13,-7,88,77,63,30.03,29.83,13,2,13,0.00
2013-1-2,26,18,-2,20,14,-5,92,82,69,30.20,29.98,10,1,10,0.00
2013-1-3,28,20,10,24,16,7,91,85,73,30.19,29.96,9,1,10,0.00
2013-1-4,35,30,26,25,23,19,84,74,58,30.01,29.86,19,4,19,0.01
2013-1-5,36,31,26,27,24,20,82,76,66,30.28,30.01,15,2,15,0.06
2013-1-6,37,33,29,32,28,23,95,82,73,30.07,29.88,12,1,12,0.17
2013-1-7,34,28,18,31,23,13,91,81,68,30.39,30.07,12,1,13,0.02
2013-1-8,41,30,20,25,21,16,86,70,52,30.31,30.15,10,0,10,0.05
2013-1-9,47,33,17,35,26,14,94,76,60,30.32,29.95,18,2,19,0.14
2013-1-10,43,35,29,29,27,23,85,72,55,30.59,30.32,12,1,10,0.00
2013-1-11,43,39,31,40,32,25,88,77,56,30.42,29.89,16,2,16,0.18
2013-1-12,56,48,38,49,44,36,96,86,75,30.01,29.95,7,0,7,0.00
2013-1-13,66,54,44,56,49,40,96,83,65,29.98,29.73,12,1,13,0.00
2013-1-14,52,35,28,48,29,20,94,77,62,30.37,29.73,24,3,24,0.00
2013-1-15,33,27,21,22,20,16,86,74,55,30.38,30.17,7,0,7,0.00
2013-1-16,37,31,27,29,25,21,84,77,60,30.17,29.77,12,1,12,0.00
2013-1-17,34,24,16,29,19,13,91,79,65,30.17,29.82,16,2,16,0.00
2013-1-18,31,19,8,17,12,6,94,73,55,30.41,30.02,13,1,15,0.03
2013-1-19,46,40,31,30,24,16,62,52,42,30.02,29.59,18,2,18,0.01
2013-1-20,46,30,17,36,18,7,80,60,45,30.06,29.44,24,5,24,0.01
2013-1-21,21,17,11,15,9,1,88,70,61,30.05,29.84,13,1,15,0.00
2013-1-22,13,9,5,1,-2,-5,71,60,48,30.15,29.88,13,3,15,0.00
2013-1-23,14,7,2,8,1,-5,90,75,59,30.20,30.07,10,1,12,0.00
2013-1-24,14,9,4,10,4,0,89,80,64,30.49,30.06,16,2,13,0.00
2013-1-25,16,10,5,11,6,0,91,81,66,30.48,30.06,9,2,10,0.00
2013-1-26,24,11,-2,14,6,-5,91,79,58,30.37,30.07,7,1,7,0.00
2013-1-27,27,19,7,18,14,5,92,79,63,30.54,30.34,10,1,10,0.02
2013-1-28,41,33,22,41,30,16,99,89,77,30.35,29.84,12,2,12,0.36
2013-1-29,53,41,32,52,32,-100,99,92,94,30.05,29.75,15,1,15,0.53
2013-1-30,63,57,50,54,50,47,95,76,68,29.75,29.03,21,3,24,0.04
2013-1-31,54,30,20,50,22,12,94,73,56,29.69,29.02,22,4,24,0.13